Time,TemperatureF,DewpointF,PressureIn,WindDirection,WindDirectionDegrees,WindSpeedMPH,WindSpeedGustMPH,Humidity,HourlyPrecipIn,Conditions,Clouds,dailyrainin,SoftwareType,DateUTC
2013-05-30 00:01:00,76.6,76.0,29.64,South,180,4.7,-999.0,98,-99.99,,,0.00,Acu-Link.com,2013-05-30 05:01:00,
2013-05-30 00:17:00,76.5,75.9,29.64,South,180,9.8,-999.0,98,-99.99,,,0.00,Acu-Link.com,2013-05-30 05:17:00,
2013-05-30 00:32:00,76.5,75.9,29.65,South,180,4.7,-999.0,98,-99.99,,,0.00,Acu-Link.com,2013-05-30 05:32:00,
2013-05-30 00:47:00,76.3,75.7,29.65,South,180,8.3,-999.0,98,-99.99,,,0.00,Acu-Link.com,2013-05-30 05:47:00,
2013-05-30 01:02:00,76.3,75.7,29.66,SSW,202,3.8,-999.0,98,-99.99,,,0.00,Acu-Link.com,2013-05-30 06:02:00,
2013-05-30 01:18:00,76.3,75.7,29.66,SE,135,6.3,-999.0,98,-99.99,,,0.00,Acu-Link.com,2013-05-30 06:18:00,
2013-05-30 01:33:00,76.1,75.5,29.66,South,180,3.8,-999.0,98,-99.99,,,0.00,Acu-Link.com,2013-05-30 06:33:00,
2013-05-30 01:48:00,75.7,75.1,29.67,ESE,112,2.7,-999.0,98,-99.99,,,0.00,Acu-Link.com,2013-05-30 06:48:00,
2013-05-30 02:03:00,75.9,75.3,29.67,ESE,112,14.1,-999.0,98,-99.99,,,0.00,Acu-Link.com,2013-05-30 07:03:00,
2013-05-30 02:18:00,75.9,75.3,29.67,South,180,6.7,-999.0,98,-99.99,,,0.00,Acu-Link.com,2013-05-30 07:18:00,
2013-05-30 02:34:00,75.4,74.8,29.67,SE,135,6.7,-999.0,98,-99.99,,,0.00,Acu-Link.com,2013-05-30 07:34:00,
2013-05-30 02:49:00,75.2,74.6,29.68,ESE,112,6.3,-999.0,98,-99.99,,,0.00,Acu-Link.com,2013-05-30 07:49:00,
2013-05-30 03:04:00,75.0,74.4,29.67,SE,135,8.3,-999.0,98,-99.99,,,0.00,Acu-Link.com,2013-05-30 08:04:00,
2013-05-30 03:20:00,74.8,74.2,29.67,SSW,202,4.3,-999.0,98,-99.99,,,0.00,Acu-Link.com,2013-05-30 08:20:00,
2013-05-30 03:35:00,74.7,74.1,29.67,SSE,157,6.3,-999.0,98,-99.99,,,0.00,Acu-Link.com,2013-05-30 08:35:00,
2013-05-30 03:50:00,75.2,74.6,29.67,SSE,157,4.7,-999.0,98,-99.99,,,0.00,Acu-Link.com,2013-05-30 08:50:00,
2013-05-30 04:05:00,75.0,74.4,29.66,SSW,202,2.7,-999.0,98,-99.99,,,0.00,Acu-Link.com,2013-05-30 09:05:00,
2013-05-30 04:20:00,75.0,74.4,29.67,SSW,202,3.8,-999.0,98,-99.99,,,0.00,Acu-Link.com,2013-05-30 09:20:00,
2013-05-30 04:35:00,74.7,74.1,29.67,SW,225,3.1,-999.0,98,-99.99,,,0.00,Acu-Link.com,2013-05-30 09:35:00,
2013-05-30 04:51:00,74.7,74.1,29.67,SSW,202,4.7,-999.0,98,-99.99,,,0.00,Acu-Link.com,2013-05-30 09:51:00,
2013-05-30 05:06:00,74.7,74.1,29.68,South,180,3.1,-999.0,98,-99.99,,,0.00,Acu-Link.com,2013-05-30 10:06:00,
2013-05-30 05:21:00,74.3,73.7,29.68,South,180,8.3,-999.0,98,-99.99,,,0.00,Acu-Link.com,2013-05-30 10:21:00,
2013-05-30 05:36:00,73.9,73.3,29.67,South,180,8.9,-999.0,98,-99.99,,,0.00,Acu-Link.com,2013-05-30 10:36:00,
2013-05-30 05:52:00,73.9,73.3,29.68,SSW,202,5.8,-999.0,98,-99.99,,,0.00,Acu-Link.com,2013-05-30 10:52:00,
2013-05-30 06:07:00,73.9,73.3,29.69,SSE,157,5.1,-999.0,98,-99.99,,,0.00,Acu-Link.com,2013-05-30 11:07:00,
2013-05-30 06:22:00,73.9,73.3,29.69,South,180,3.8,-999.0,98,-99.99,,,0.00,Acu-Link.com,2013-05-30 11:22:00,
2013-05-30 06:37:00,73.4,72.8,29.70,South,180,4.3,-999.0,98,-99.99,,,0.00,Acu-Link.com,2013-05-30 11:37:00,
2013-05-30 06:52:00,73.2,72.6,29.70,South,180,5.1,-999.0,98,-99.99,,,0.00,Acu-Link.com,2013-05-30 11:52:00,
2013-05-30 07:08:00,73.8,73.2,29.70,NE,45,5.8,-999.0,98,-99.99,,,0.00,Acu-Link.com,2013-05-30 12:08:00,
2013-05-30 07:23:00,73.8,73.2,29.70,South,180,4.7,-999.0,98,-99.99,,,0.00,Acu-Link.com,2013-05-30 12:23:00,
2013-05-30 07:38:00,73.8,73.2,29.71,SSW,202,4.3,-999.0,98,-99.99,,,0.00,Acu-Link.com,2013-05-30 12:38:00,
2013-05-30 07:53:00,73.4,72.8,29.71,South,180,5.8,-999.0,98,-99.99,,,0.00,Acu-Link.com,2013-05-30 12:53:00,
2013-05-30 08:09:00,73.0,72.4,29.71,South,180,4.3,-999.0,98,-99.99,,,0.00,Acu-Link.com,2013-05-30 13:09:00,
2013-05-30 08:24:00,73.0,72.4,29.72,South,180,4.7,-999.0,98,-99.99,,,0.00,Acu-Link.com,2013-05-30 13:24:00,
2013-05-30 08:39:00,73.0,72.4,29.72,SE,135,6.3,-999.0,98,-99.99,,,0.00,Acu-Link.com,2013-05-30 13:39:00,
2013-05-30 08:54:00,74.1,73.5,29.72,SE,135,4.3,-999.0,98,-99.99,,,0.00,Acu-Link.com,2013-05-30 13:54:00,
2013-05-30 09:09:00,75.7,75.1,29.72,SSE,157,5.8,-999.0,98,-99.99,,,0.00,Acu-Link.com,2013-05-30 14:09:00,
2013-05-30 09:25:00,75.0,74.4,29.72,SSE,157,5.8,-999.0,98,-99.99,,,0.00,Acu-Link.com,2013-05-30 14:25:00,
2013-05-30 09:40:00,75.6,75.0,29.72,SSW,202,8.9,-999.0,98,-99.99,,,0.00,Acu-Link.com,2013-05-30 14:40:00,
2013-05-30 09:55:00,75.0,74.4,29.72,South,180,12.5,-999.0,98,-99.99,,,0.00,Acu-Link.com,2013-05-30 14:55:00,
2013-05-30 10:10:00,76.6,76.0,29.72,North,0,7.8,-999.0,98,-99.99,,,0.00,Acu-Link.com,2013-05-30 15:10:00,
2013-05-30 10:25:00,76.5,75.9,29.72,SSW,202,9.4,-999.0,98,-99.99,,,0.00,Acu-Link.com,2013-05-30 15:25:00,
2013-05-30 10:41:00,76.3,75.7,29.73,South,180,8.9,-999.0,98,-99.99,,,0.00,Acu-Link.com,2013-05-30 15:41:00,
2013-05-30 10:56:00,76.3,75.7,29.72,South,180,10.3,-999.0,98,-99.99,,,0.00,Acu-Link.com,2013-05-30 15:56:00,
2013-05-30 11:11:00,76.3,75.7,29.73,SE,135,8.3,-999.0,98,-99.99,,,0.00,Acu-Link.com,2013-05-30 16:11:00,
2013-05-30 11:26:00,76.6,76.0,29.73,SSW,202,8.9,-999.0,98,-99.99,,,0.00,Acu-Link.com,2013-05-30 16:26:00,
2013-05-30 11:41:00,77.9,77.3,29.73,SSW,202,9.4,-999.0,98,-99.99,,,0.00,Acu-Link.com,2013-05-30 16:41:00,
2013-05-30 11:57:00,79.9,79.3,29.73,South,180,6.7,-999.0,98,-99.99,,,0.00,Acu-Link.com,2013-05-30 16:57:00,
2013-05-30 12:12:00,83.5,82.9,29.73,SSW,202,13.0,-999.0,98,-99.99,,,0.00,Acu-Link.com,2013-05-30 17:12:00,
2013-05-30 12:27:00,84.0,83.4,29.73,SSE,157,13.4,-999.0,98,-99.99,,,0.00,Acu-Link.com,2013-05-30 17:27:00,
2013-05-30 12:42:00,85.5,84.8,29.72,SSE,157,8.3,-999.0,98,-99.99,,,0.00,Acu-Link.com,2013-05-30 17:42:00,
2013-05-30 12:57:00,85.1,84.5,29.72,SSE,157,5.1,-999.0,98,-99.99,,,0.00,Acu-Link.com,2013-05-30 17:57:00,
2013-05-30 13:13:00,85.3,84.6,29.72,South,180,6.7,-999.0,98,-99.99,,,0.00,Acu-Link.com,2013-05-30 18:13:00,
2013-05-30 13:28:00,85.8,85.2,29.71,SSE,157,16.1,-999.0,98,-99.99,,,0.00,Acu-Link.com,2013-05-30 18:28:00,
2013-05-30 13:43:00,86.4,85.7,29.71,South,180,10.3,-999.0,98,-99.99,,,0.00,Acu-Link.com,2013-05-30 18:43:00,
2013-05-30 13:58:00,84.4,83.8,29.70,South,180,11.0,-999.0,98,-99.99,,,0.00,Acu-Link.com,2013-05-30 18:58:00,
2013-05-30 14:14:00,86.0,85.4,29.70,South,180,4.3,-999.0,98,-99.99,,,0.00,Acu-Link.com,2013-05-30 19:14:00,
2013-05-30 14:29:00,89.4,85.4,29.69,South,180,9.8,-999.0,88,-99.99,,,0.00,Acu-Link.com,2013-05-30 19:29:00,
2013-05-30 14:44:00,88.0,85.0,29.69,WNW,292,7.4,-999.0,91,-99.99,,,0.00,Acu-Link.com,2013-05-30 19:44:00,
2013-05-30 14:59:00,87.3,83.6,29.69,SSE,157,10.3,-999.0,89,-99.99,,,0.00,Acu-Link.com,2013-05-30 19:59:00,
2013-05-30 15:14:00,87.6,84.7,29.68,South,180,5.1,-999.0,91,-99.99,,,0.00,Acu-Link.com,2013-05-30 20:14:00,
2013-05-30 15:30:00,90.9,85.0,29.68,SE,135,9.8,-999.0,83,-99.99,,,0.00,Acu-Link.com,2013-05-30 20:30:00,
2013-05-30 15:45:00,89.4,84.3,29.67,South,180,6.3,-999.0,85,-99.99,,,0.00,Acu-Link.com,2013-05-30 20:45:00,
2013-05-30 16:00:00,90.3,83.7,29.67,NNE,22,13.0,-999.0,81,-99.99,,,0.00,Acu-Link.com,2013-05-30 21:00:00,
2013-05-30 16:15:00,88.9,84.1,29.67,ESE,112,5.8,-999.0,86,-99.99,,,0.00,Acu-Link.com,2013-05-30 21:15:00,
2013-05-30 16:30:00,88.7,84.0,29.66,SW,225,9.4,-999.0,86,-99.99,,,0.00,Acu-Link.com,2013-05-30 21:30:00,
2013-05-30 16:45:00,89.2,83.4,29.66,South,180,4.7,-999.0,83,-99.99,,,0.00,Acu-Link.com,2013-05-30 21:45:00,
2013-05-30 17:01:00,90.1,83.1,29.66,SSE,157,6.7,-999.0,80,-99.99,,,0.00,Acu-Link.com,2013-05-30 22:01:00,
2013-05-30 17:16:00,90.5,83.1,29.65,SE,135,6.3,-999.0,79,-99.99,,,0.00,Acu-Link.com,2013-05-30 22:16:00,
2013-05-30 17:31:00,89.1,82.8,29.65,West,270,8.9,-999.0,82,-99.99,,,0.00,Acu-Link.com,2013-05-30 22:31:00,
2013-05-30 17:46:00,88.3,82.5,29.65,South,180,9.4,-999.0,83,-99.99,,,0.00,Acu-Link.com,2013-05-30 22:46:00,
2013-05-30 18:01:00,88.9,83.0,29.65,South,180,8.3,-999.0,83,-99.99,,,0.00,Acu-Link.com,2013-05-30 23:01:00,
2013-05-30 18:17:00,87.6,82.9,29.65,SSE,157,8.3,-999.0,86,-99.99,,,0.00,Acu-Link.com,2013-05-30 23:17:00,
2013-05-30 18:32:00,87.6,82.2,29.64,SSW,202,9.4,-999.0,84,-99.99,,,0.00,Acu-Link.com,2013-05-30 23:32:00,
2013-05-30 18:47:00,87.4,82.4,29.64,South,180,9.4,-999.0,85,-99.99,,,0.00,Acu-Link.com,2013-05-30 23:47:00,
2013-05-30 19:02:00,86.9,82.5,29.64,SSW,202,4.7,-999.0,87,-99.99,,,0.00,Acu-Link.com,2013-05-31 00:02:00,
2013-05-30 19:18:00,86.4,82.0,29.64,South,180,10.3,-999.0,87,-99.99,,,0.00,Acu-Link.com,2013-05-31 00:18:00,
2013-05-30 19:33:00,85.8,81.5,29.65,South,180,4.3,-999.0,87,-99.99,,,0.00,Acu-Link.com,2013-05-31 00:33:00,
2013-05-30 19:48:00,84.9,81.0,29.64,South,180,8.3,-999.0,88,-99.99,,,0.00,Acu-Link.com,2013-05-31 00:48:00,
2013-05-30 20:03:00,84.6,80.9,29.64,South,180,9.4,-999.0,89,-99.99,,,0.00,Acu-Link.com,2013-05-31 01:03:00,
2013-05-30 20:18:00,84.0,81.1,29.65,SSE,157,10.3,-999.0,91,-99.99,,,0.00,Acu-Link.com,2013-05-31 01:18:00,
2013-05-30 20:34:00,83.3,80.7,29.65,SSE,157,4.3,-999.0,92,-99.99,,,0.00,Acu-Link.com,2013-05-31 01:34:00,
2013-05-30 20:49:00,82.2,80.6,29.65,SW,225,2.7,-999.0,95,-99.99,,,0.00,Acu-Link.com,2013-05-31 01:49:00,
2013-05-30 21:04:00,81.5,80.9,29.66,SSE,157,2.7,-999.0,98,-99.99,,,0.00,Acu-Link.com,2013-05-31 02:04:00,
2013-05-30 21:19:00,81.3,80.7,29.67,South,180,3.8,-999.0,98,-99.99,,,0.00,Acu-Link.com,2013-05-31 02:19:00,
2013-05-30 21:34:00,80.4,79.8,29.67,South,180,2.2,-999.0,98,-99.99,,,0.00,Acu-Link.com,2013-05-31 02:34:00,
2013-05-30 21:50:00,80.1,79.4,29.68,East,90,3.1,-999.0,98,-99.99,,,0.00,Acu-Link.com,2013-05-31 02:50:00,
2013-05-30 22:05:00,80.1,79.4,29.69,South,180,5.1,-999.0,98,-99.99,,,0.00,Acu-Link.com,2013-05-31 03:05:00,
2013-05-30 22:20:00,79.5,78.9,29.70,South,180,3.1,-999.0,98,-99.99,,,0.00,Acu-Link.com,2013-05-31 03:20:00,
2013-05-30 22:35:00,78.8,78.2,29.70,SE,135,3.1,-999.0,98,-99.99,,,0.00,Acu-Link.com,2013-05-31 03:35:00,
2013-05-30 22:50:00,78.4,77.8,29.70,South,180,3.1,-999.0,98,-99.99,,,0.00,Acu-Link.com,2013-05-31 03:50:00,
2013-05-30 23:06:00,78.3,77.6,29.70,ENE,67,3.8,-999.0,98,-99.99,,,0.00,Acu-Link.com,2013-05-31 04:06:00,
2013-05-30 23:21:00,77.7,77.1,29.71,SSW,202,2.7,-999.0,98,-99.99,,,0.00,Acu-Link.com,2013-05-31 04:21:00,
2013-05-30 23:36:00,77.4,76.7,29.71,South,180,3.8,-999.0,98,-99.99,,,0.00,Acu-Link.com,2013-05-31 04:36:00,
2013-05-30 23:51:00,77.0,76.4,29.71,SSE,157,3.8,-999.0,98,-99.99,,,0.00,Acu-Link.com,2013-05-31 04:51:00,